sensor_id;sensor_type;location;lat;lon;timestamp;P1;durP1;ratioP1;P2;durP2;ratioP2
26820;SDS011;37186;51.394;5.454;2022-08-23T00:02:20;284.55;;;271.15;;
26820;SDS011;37186;51.394;5.454;2022-08-23T00:05:21;280.98;;;267.80;;
26820;SDS011;37186;51.394;5.454;2022-08-23T00:08:21;283.08;;;269.67;;
26820;SDS011;37186;51.394;5.454;2022-08-23T00:14:27;275.08;;;262.33;;
26820;SDS011;37186;51.394;5.454;2022-08-23T00:17:29;275.05;;;262.23;;
26820;SDS011;37186;51.394;5.454;2022-08-23T00:20:30;271.15;;;258.58;;
26820;SDS011;37186;51.394;5.454;2022-08-23T00:23:30;259.20;;;247.20;;
26820;SDS011;37186;51.394;5.454;2022-08-23T00:30:05;235.40;;;224.82;;
26820;SDS011;37186;51.394;5.454;2022-08-23T00:33:07;245.43;;;234.23;;
26820;SDS011;37186;51.394;5.454;2022-08-23T00:36:08;259.10;;;247.25;;
26820;SDS011;37186;51.394;5.454;2022-08-23T00:39:09;257.17;;;245.50;;
26820;SDS011;37186;51.394;5.454;2022-08-23T00:42:15;252.07;;;240.75;;
26820;SDS011;37186;51.394;5.454;2022-08-23T00:45:59;230.18;;;220.02;;
26820;SDS011;37186;51.394;5.454;2022-08-23T00:49:21;227.55;;;217.32;;
26820;SDS011;37186;51.394;5.454;2022-08-23T00:52:26;223.07;;;213.25;;
26820;SDS011;37186;51.394;5.454;2022-08-23T00:55:34;234.43;;;223.85;;
26820;SDS011;37186;51.394;5.454;2022-08-23T00:58:37;228.57;;;218.27;;
26820;SDS011;37186;51.394;5.454;2022-08-23T01:01:38;216.23;;;206.75;;
26820;SDS011;37186;51.394;5.454;2022-08-23T01:04:41;239.32;;;228.73;;
26820;SDS011;37186;51.394;5.454;2022-08-23T01:07:54;215.50;;;205.98;;
26820;SDS011;37186;51.394;5.454;2022-08-23T01:11:00;227.15;;;217.02;;
26820;SDS011;37186;51.394;5.454;2022-08-23T01:14:07;223.02;;;213.23;;
26820;SDS011;37186;51.394;5.454;2022-08-23T01:17:19;226.43;;;216.50;;
26820;SDS011;37186;51.394;5.454;2022-08-23T01:20:23;220.18;;;210.30;;
26820;SDS011;37186;51.394;5.454;2022-08-23T01:26:30;220.35;;;210.55;;
26820;SDS011;37186;51.394;5.454;2022-08-23T01:29:34;227.13;;;217.02;;
26820;SDS011;37186;51.394;5.454;2022-08-23T01:32:36;218.50;;;208.98;;
26820;SDS011;37186;51.394;5.454;2022-08-23T01:35:47;217.45;;;207.90;;
26820;SDS011;37186;51.394;5.454;2022-08-23T01:38:50;223.98;;;214.00;;
26820;SDS011;37186;51.394;5.454;2022-08-23T01:41:50;229.18;;;219.02;;
26820;SDS011;37186;51.394;5.454;2022-08-23T01:44:51;226.48;;;216.48;;
26820;SDS011;37186;51.394;5.454;2022-08-23T01:47:52;226.13;;;216.00;;
26820;SDS011;37186;51.394;5.454;2022-08-23T01:50:53;227.23;;;217.15;;
26820;SDS011;37186;51.394;5.454;2022-08-23T01:53:53;218.02;;;208.27;;
26820;SDS011;37186;51.394;5.454;2022-08-23T01:56:54;227.43;;;217.35;;
26820;SDS011;37186;51.394;5.454;2022-08-23T01:59:56;218.40;;;208.80;;
26820;SDS011;37186;51.394;5.454;2022-08-23T02:02:57;211.40;;;202.00;;
26820;SDS011;37186;51.394;5.454;2022-08-23T02:05:59;212.82;;;203.40;;
26820;SDS011;37186;51.394;5.454;2022-08-23T02:09:00;222.95;;;212.85;;
26820;SDS011;37186;51.394;5.454;2022-08-23T02:12:00;199.23;;;190.43;;
26820;SDS011;37186;51.394;5.454;2022-08-23T02:15:01;199.00;;;190.23;;
26820;SDS011;37186;51.394;5.454;2022-08-23T02:18:03;211.15;;;201.73;;
26820;SDS011;37186;51.394;5.454;2022-08-23T02:21:03;208.77;;;199.60;;
26820;SDS011;37186;51.394;5.454;2022-08-23T02:24:05;197.80;;;189.05;;
26820;SDS011;37186;51.394;5.454;2022-08-23T02:27:08;204.50;;;195.48;;
26820;SDS011;37186;51.394;5.454;2022-08-23T02:30:10;209.02;;;199.57;;
26820;SDS011;37186;51.394;5.454;2022-08-23T02:33:11;198.18;;;189.30;;
26820;SDS011;37186;51.394;5.454;2022-08-23T02:36:13;190.15;;;181.70;;
26820;SDS011;37186;51.394;5.454;2022-08-23T02:39:15;212.70;;;203.23;;
26820;SDS011;37186;51.394;5.454;2022-08-23T02:42:16;208.90;;;199.65;;
26820;SDS011;37186;51.394;5.454;2022-08-23T02:45:16;202.77;;;193.73;;
26820;SDS011;37186;51.394;5.454;2022-08-23T02:48:17;206.68;;;197.43;;
26820;SDS011;37186;51.394;5.454;2022-08-23T02:51:18;210.07;;;200.70;;
26820;SDS011;37186;51.394;5.454;2022-08-23T02:54:19;211.65;;;202.15;;
26820;SDS011;37186;51.394;5.454;2022-08-23T02:57:20;209.98;;;200.68;;
26820;SDS011;37186;51.394;5.454;2022-08-23T03:00:20;213.15;;;203.57;;
26820;SDS011;37186;51.394;5.454;2022-08-23T03:03:21;203.93;;;194.93;;
26820;SDS011;37186;51.394;5.454;2022-08-23T03:06:22;201.93;;;192.88;;
26820;SDS011;37186;51.394;5.454;2022-08-23T03:09:23;195.48;;;186.75;;
26820;SDS011;37186;51.394;5.454;2022-08-23T03:12:24;198.68;;;189.85;;
26820;SDS011;37186;51.394;5.454;2022-08-23T03:15:26;200.55;;;191.75;;
26820;SDS011;37186;51.394;5.454;2022-08-23T03:18:26;206.43;;;197.20;;
26820;SDS011;37186;51.394;5.454;2022-08-23T03:21:27;196.43;;;187.65;;
26820;SDS011;37186;51.394;5.454;2022-08-23T03:24:27;209.65;;;200.25;;
26820;SDS011;37186;51.394;5.454;2022-08-23T03:27:28;198.40;;;189.65;;
26820;SDS011;37186;51.394;5.454;2022-08-23T03:30:30;214.23;;;204.73;;
26820;SDS011;37186;51.394;5.454;2022-08-23T03:33:32;206.77;;;197.52;;
26820;SDS011;37186;51.394;5.454;2022-08-23T03:36:33;217.10;;;207.25;;
26820;SDS011;37186;51.394;5.454;2022-08-23T03:39:34;216.38;;;206.73;;
26820;SDS011;37186;51.394;5.454;2022-08-23T03:42:35;208.23;;;198.80;;
26820;SDS011;37186;51.394;5.454;2022-08-23T03:45:35;211.05;;;201.60;;
26820;SDS011;37186;51.394;5.454;2022-08-23T03:48:36;223.57;;;213.45;;
26820;SDS011;37186;51.394;5.454;2022-08-23T03:51:37;220.88;;;210.98;;
26820;SDS011;37186;51.394;5.454;2022-08-23T03:54:38;218.85;;;209.02;;
26820;SDS011;37186;51.394;5.454;2022-08-23T03:57:39;218.85;;;209.00;;
26820;SDS011;37186;51.394;5.454;2022-08-23T04:00:39;212.68;;;203.10;;
26820;SDS011;37186;51.394;5.454;2022-08-23T04:03:40;228.10;;;217.85;;
26820;SDS011;37186;51.394;5.454;2022-08-23T04:06:42;216.32;;;206.55;;
26820;SDS011;37186;51.394;5.454;2022-08-23T04:09:44;225.07;;;214.93;;
26820;SDS011;37186;51.394;5.454;2022-08-23T04:12:45;228.32;;;218.05;;
26820;SDS011;37186;51.394;5.454;2022-08-23T04:15:47;230.57;;;220.25;;
26820;SDS011;37186;51.394;5.454;2022-08-23T04:18:48;236.35;;;225.77;;
26820;SDS011;37186;51.394;5.454;2022-08-23T04:21:49;223.75;;;213.77;;
26820;SDS011;37186;51.394;5.454;2022-08-23T04:24:51;228.20;;;218.02;;
26820;SDS011;37186;51.394;5.454;2022-08-23T04:27:51;225.30;;;215.30;;
26820;SDS011;37186;51.394;5.454;2022-08-23T04:30:53;235.52;;;225.02;;
26820;SDS011;37186;51.394;5.454;2022-08-23T04:33:54;231.82;;;221.55;;
26820;SDS011;37186;51.394;5.454;2022-08-23T04:36:57;238.80;;;228.23;;
26820;SDS011;37186;51.394;5.454;2022-08-23T04:39:58;230.02;;;219.85;;
26820;SDS011;37186;51.394;5.454;2022-08-23T04:43:17;225.75;;;215.85;;
26820;SDS011;37186;51.394;5.454;2022-08-23T04:46:18;230.30;;;220.15;;
26820;SDS011;37186;51.394;5.454;2022-08-23T04:49:18;239.43;;;228.77;;
26820;SDS011;37186;51.394;5.454;2022-08-23T04:52:20;234.25;;;223.80;;
26820;SDS011;37186;51.394;5.454;2022-08-23T04:55:20;220.43;;;210.65;;
26820;SDS011;37186;51.394;5.454;2022-08-23T04:58:21;223.52;;;213.65;;
26820;SDS011;37186;51.394;5.454;2022-08-23T05:01:22;228.40;;;218.25;;
26820;SDS011;37186;51.394;5.454;2022-08-23T05:04:24;238.77;;;228.38;;
26820;SDS011;37186;51.394;5.454;2022-08-23T05:07:24;231.43;;;221.30;;
26820;SDS011;37186;51.394;5.454;2022-08-23T05:10:25;232.05;;;222.05;;
26820;SDS011;37186;51.394;5.454;2022-08-23T05:13:25;228.57;;;218.60;;
26820;SDS011;37186;51.394;5.454;2022-08-23T05:16:26;232.57;;;222.40;;
26820;SDS011;37186;51.394;5.454;2022-08-23T05:19:27;234.23;;;223.95;;
26820;SDS011;37186;51.394;5.454;2022-08-23T05:22:27;231.15;;;221.02;;
26820;SDS011;37186;51.394;5.454;2022-08-23T05:25:32;231.65;;;221.48;;
26820;SDS011;37186;51.394;5.454;2022-08-23T05:28:49;236.38;;;225.98;;
26820;SDS011;37186;51.394;5.454;2022-08-23T05:31:50;232.23;;;222.05;;
26820;SDS011;37186;51.394;5.454;2022-08-23T05:34:50;241.48;;;230.80;;
26820;SDS011;37186;51.394;5.454;2022-08-23T05:37:51;256.90;;;245.50;;
26820;SDS011;37186;51.394;5.454;2022-08-23T05:40:52;243.18;;;232.45;;
26820;SDS011;37186;51.394;5.454;2022-08-23T05:43:54;249.45;;;238.43;;
26820;SDS011;37186;51.394;5.454;2022-08-23T05:46:55;248.90;;;237.95;;
26820;SDS011;37186;51.394;5.454;2022-08-23T05:49:55;247.90;;;236.98;;
26820;SDS011;37186;51.394;5.454;2022-08-23T05:52:56;254.63;;;243.30;;
26820;SDS011;37186;51.394;5.454;2022-08-23T05:55:56;259.02;;;247.32;;
26820;SDS011;37186;51.394;5.454;2022-08-23T05:59:13;245.73;;;234.85;;
26820;SDS011;37186;51.394;5.454;2022-08-23T06:02:15;247.95;;;236.80;;
26820;SDS011;37186;51.394;5.454;2022-08-23T06:05:16;236.93;;;226.40;;
26820;SDS011;37186;51.394;5.454;2022-08-23T06:08:18;231.15;;;220.80;;
26820;SDS011;37186;51.394;5.454;2022-08-23T06:11:20;241.05;;;230.20;;
26820;SDS011;37186;51.394;5.454;2022-08-23T06:14:23;239.05;;;228.32;;
26820;SDS011;37186;51.394;5.454;2022-08-23T06:17:23;238.60;;;227.73;;
26820;SDS011;37186;51.394;5.454;2022-08-23T06:20:24;224.98;;;214.77;;
26820;SDS011;37186;51.394;5.454;2022-08-23T06:23:25;224.93;;;214.80;;
26820;SDS011;37186;51.394;5.454;2022-08-23T06:26:27;231.20;;;220.65;;
26820;SDS011;37186;51.394;5.454;2022-08-23T06:29:32;231.90;;;221.43;;
26820;SDS011;37186;51.394;5.454;2022-08-23T06:32:33;234.15;;;223.43;;
26820;SDS011;37186;51.394;5.454;2022-08-23T06:35:34;239.27;;;228.35;;
26820;SDS011;37186;51.394;5.454;2022-08-23T06:38:35;220.13;;;210.15;;
26820;SDS011;37186;51.394;5.454;2022-08-23T06:41:35;244.35;;;233.00;;
26820;SDS011;37186;51.394;5.454;2022-08-23T06:44:37;229.63;;;219.15;;
26820;SDS011;37186;51.394;5.454;2022-08-23T06:47:37;225.52;;;215.27;;
26820;SDS011;37186;51.394;5.454;2022-08-23T06:50:39;224.27;;;214.05;;
26820;SDS011;37186;51.394;5.454;2022-08-23T06:53:40;226.55;;;216.20;;
26820;SDS011;37186;51.394;5.454;2022-08-23T06:56:41;244.80;;;233.57;;
26820;SDS011;37186;51.394;5.454;2022-08-23T06:59:42;223.05;;;212.82;;
26820;SDS011;37186;51.394;5.454;2022-08-23T07:02:43;222.38;;;212.15;;
26820;SDS011;37186;51.394;5.454;2022-08-23T07:05:44;219.10;;;209.02;;
26820;SDS011;37186;51.394;5.454;2022-08-23T07:08:45;203.55;;;194.25;;
26820;SDS011;37186;51.394;5.454;2022-08-23T07:11:45;214.15;;;204.30;;
26820;SDS011;37186;51.394;5.454;2022-08-23T07:14:46;220.45;;;210.40;;
26820;SDS011;37186;51.394;5.454;2022-08-23T07:17:48;217.88;;;207.90;;
26820;SDS011;37186;51.394;5.454;2022-08-23T07:20:48;213.00;;;203.23;;
26820;SDS011;37186;51.394;5.454;2022-08-23T07:23:49;209.95;;;200.30;;
26820;SDS011;37186;51.394;5.454;2022-08-23T07:26:50;220.95;;;210.70;;
26820;SDS011;37186;51.394;5.454;2022-08-23T07:29:51;223.73;;;213.35;;
26820;SDS011;37186;51.394;5.454;2022-08-23T07:32:51;214.38;;;204.40;;
26820;SDS011;37186;51.394;5.454;2022-08-23T07:35:52;227.48;;;216.80;;
26820;SDS011;37186;51.394;5.454;2022-08-23T07:38:53;231.13;;;220.30;;
26820;SDS011;37186;51.394;5.454;2022-08-23T07:41:54;228.88;;;218.07;;
26820;SDS011;37186;51.394;5.454;2022-08-23T07:44:57;215.70;;;205.48;;
26820;SDS011;37186;51.394;5.454;2022-08-23T07:47:59;217.55;;;207.30;;
26820;SDS011;37186;51.394;5.454;2022-08-23T07:51:01;213.18;;;203.05;;
26820;SDS011;37186;51.394;5.454;2022-08-23T07:54:05;220.02;;;209.52;;
26820;SDS011;37186;51.394;5.454;2022-08-23T07:57:08;238.00;;;226.63;;
26820;SDS011;37186;51.394;5.454;2022-08-23T08:00:09;230.77;;;219.50;;
26820;SDS011;37186;51.394;5.454;2022-08-23T08:03:10;231.45;;;220.18;;
26820;SDS011;37186;51.394;5.454;2022-08-23T08:06:17;237.82;;;226.35;;
26820;SDS011;37186;51.394;5.454;2022-08-23T08:09:24;236.13;;;224.48;;
26820;SDS011;37186;51.394;5.454;2022-08-23T08:12:24;234.93;;;223.32;;
26820;SDS011;37186;51.394;5.454;2022-08-23T08:15:27;237.82;;;225.98;;
26820;SDS011;37186;51.394;5.454;2022-08-23T08:18:27;250.07;;;237.40;;
26820;SDS011;37186;51.394;5.454;2022-08-23T08:21:28;255.75;;;242.88;;
26820;SDS011;37186;51.394;5.454;2022-08-23T08:24:28;266.52;;;253.00;;
26820;SDS011;37186;51.394;5.454;2022-08-23T08:27:29;252.52;;;239.57;;
26820;SDS011;37186;51.394;5.454;2022-08-23T08:30:31;265.13;;;251.50;;
26820;SDS011;37186;51.394;5.454;2022-08-23T08:33:32;261.00;;;247.27;;
26820;SDS011;37186;51.394;5.454;2022-08-23T08:39:40;285.35;;;270.58;;
26820;SDS011;37186;51.394;5.454;2022-08-23T08:43:00;270.65;;;256.85;;
26820;SDS011;37186;51.394;5.454;2022-08-23T08:46:23;275.02;;;261.40;;
26820;SDS011;37186;51.394;5.454;2022-08-23T08:49:56;264.75;;;251.23;;
26820;SDS011;37186;51.394;5.454;2022-08-23T08:53:04;287.27;;;272.77;;
26820;SDS011;37186;51.394;5.454;2022-08-23T08:59:41;280.40;;;266.00;;
26820;SDS011;37186;51.394;5.454;2022-08-23T09:02:55;269.27;;;255.65;;
26820;SDS011;37186;51.394;5.454;2022-08-23T09:09:19;287.80;;;273.38;;
26820;SDS011;37186;51.394;5.454;2022-08-23T09:19:12;302.33;;;287.15;;
26820;SDS011;37186;51.394;5.454;2022-08-23T09:22:13;301.65;;;286.75;;
26820;SDS011;37186;51.394;5.454;2022-08-23T09:25:19;286.63;;;272.38;;
26820;SDS011;37186;51.394;5.454;2022-08-23T09:28:21;298.17;;;283.30;;
26820;SDS011;37186;51.394;5.454;2022-08-23T09:31:34;315.40;;;299.67;;
26820;SDS011;37186;51.394;5.454;2022-08-23T09:34:42;304.65;;;289.20;;
26820;SDS011;37186;51.394;5.454;2022-08-23T09:38:00;311.42;;;295.77;;
26820;SDS011;37186;51.394;5.454;2022-08-23T09:41:03;298.15;;;283.33;;
26820;SDS011;37186;51.394;5.454;2022-08-23T09:44:37;324.42;;;308.13;;
26820;SDS011;37186;51.394;5.454;2022-08-23T09:47:39;309.60;;;294.17;;
26820;SDS011;37186;51.394;5.454;2022-08-23T09:50:43;321.10;;;304.98;;
26820;SDS011;37186;51.394;5.454;2022-08-23T09:57:16;329.48;;;312.58;;
26820;SDS011;37186;51.394;5.454;2022-08-23T10:00:25;325.25;;;308.85;;
26820;SDS011;37186;51.394;5.454;2022-08-23T10:03:32;331.38;;;314.90;;
26820;SDS011;37186;51.394;5.454;2022-08-23T10:06:33;331.05;;;314.30;;
26820;SDS011;37186;51.394;5.454;2022-08-23T10:09:33;336.15;;;319.23;;
26820;SDS011;37186;51.394;5.454;2022-08-23T10:12:34;338.63;;;321.73;;
26820;SDS011;37186;51.394;5.454;2022-08-23T10:19:09;352.45;;;334.50;;
26820;SDS011;37186;51.394;5.454;2022-08-23T10:22:55;349.27;;;331.48;;
26820;SDS011;37186;51.394;5.454;2022-08-23T10:26:24;336.55;;;319.63;;
26820;SDS011;37186;51.394;5.454;2022-08-23T10:29:39;336.08;;;318.92;;
26820;SDS011;37186;51.394;5.454;2022-08-23T10:36:13;326.30;;;309.40;;
26820;SDS011;37186;51.394;5.454;2022-08-23T10:39:23;327.27;;;310.27;;
26820;SDS011;37186;51.394;5.454;2022-08-23T10:42:44;312.85;;;296.50;;
26820;SDS011;37186;51.394;5.454;2022-08-23T10:46:09;322.10;;;305.30;;
26820;SDS011;37186;51.394;5.454;2022-08-23T10:49:10;307.38;;;291.77;;
26820;SDS011;37186;51.394;5.454;2022-08-23T10:52:14;299.02;;;283.67;;
26820;SDS011;37186;51.394;5.454;2022-08-23T10:55:25;314.23;;;298.05;;
26820;SDS011;37186;51.394;5.454;2022-08-23T10:58:46;302.13;;;286.70;;
26820;SDS011;37186;51.394;5.454;2022-08-23T11:05:32;295.33;;;280.48;;
26820;SDS011;37186;51.394;5.454;2022-08-23T11:08:35;298.40;;;283.45;;
26820;SDS011;37186;51.394;5.454;2022-08-23T11:18:07;319.85;;;304.05;;
26820;SDS011;37186;51.394;5.454;2022-08-23T11:24:33;328.15;;;311.70;;
26820;SDS011;37186;51.394;5.454;2022-08-23T11:27:49;345.42;;;328.05;;
26820;SDS011;37186;51.394;5.454;2022-08-23T11:34:23;327.40;;;310.88;;
26820;SDS011;37186;51.394;5.454;2022-08-23T11:37:47;318.52;;;302.45;;
26820;SDS011;37186;51.394;5.454;2022-08-23T11:46:57;311.88;;;295.90;;
26820;SDS011;37186;51.394;5.454;2022-08-23T11:53:32;299.48;;;284.23;;
26820;SDS011;37186;51.394;5.454;2022-08-23T12:00:01;297.00;;;281.48;;
26820;SDS011;37186;51.394;5.454;2022-08-23T12:03:08;307.60;;;291.52;;
26820;SDS011;37186;51.394;5.454;2022-08-23T12:06:35;292.85;;;277.95;;
26820;SDS011;37186;51.394;5.454;2022-08-23T12:10:02;292.05;;;277.48;;
26820;SDS011;37186;51.394;5.454;2022-08-23T12:19:27;323.90;;;306.50;;
26820;SDS011;37186;51.394;5.454;2022-08-23T12:30:00;315.35;;;298.00;;
26820;SDS011;37186;51.394;5.454;2022-08-23T12:33:32;320.10;;;302.63;;
26820;SDS011;37186;51.394;5.454;2022-08-23T12:36:37;357.70;;;337.42;;
26820;SDS011;37186;51.394;5.454;2022-08-23T12:39:52;333.77;;;315.67;;
26820;SDS011;37186;51.394;5.454;2022-08-23T12:43:06;332.75;;;314.98;;
26820;SDS011;37186;51.394;5.454;2022-08-23T12:46:26;338.13;;;319.90;;
26820;SDS011;37186;51.394;5.454;2022-08-23T12:49:33;330.40;;;313.02;;
26820;SDS011;37186;51.394;5.454;2022-08-23T12:52:35;349.25;;;330.60;;
26820;SDS011;37186;51.394;5.454;2022-08-23T12:55:37;333.65;;;316.48;;
26820;SDS011;37186;51.394;5.454;2022-08-23T12:58:43;334.00;;;316.75;;
26820;SDS011;37186;51.394;5.454;2022-08-23T13:01:47;351.58;;;333.35;;
26820;SDS011;37186;51.394;5.454;2022-08-23T13:04:48;396.50;;;376.15;;
26820;SDS011;37186;51.394;5.454;2022-08-23T13:07:48;410.50;;;388.90;;
26820;SDS011;37186;51.394;5.454;2022-08-23T13:10:50;401.55;;;380.73;;
26820;SDS011;37186;51.394;5.454;2022-08-23T13:13:51;389.33;;;368.90;;
26820;SDS011;37186;51.394;5.454;2022-08-23T13:16:53;398.85;;;377.80;;
26820;SDS011;37186;51.394;5.454;2022-08-23T13:20:09;415.02;;;393.45;;
26820;SDS011;37186;51.394;5.454;2022-08-23T13:23:16;437.02;;;413.33;;
26820;SDS011;37186;51.394;5.454;2022-08-23T13:29:47;419.83;;;397.85;;
26820;SDS011;37186;51.394;5.454;2022-08-23T13:32:49;434.95;;;411.35;;
26820;SDS011;37186;51.394;5.454;2022-08-23T13:36:04;443.52;;;418.83;;
26820;SDS011;37186;51.394;5.454;2022-08-23T13:39:06;445.80;;;420.65;;
26820;SDS011;37186;51.394;5.454;2022-08-23T13:42:08;440.55;;;415.65;;
26820;SDS011;37186;51.394;5.454;2022-08-23T13:45:18;447.23;;;421.63;;
26820;SDS011;37186;51.394;5.454;2022-08-23T13:48:29;484.55;;;456.48;;
26820;SDS011;37186;51.394;5.454;2022-08-23T13:51:36;446.65;;;420.83;;
26820;SDS011;37186;51.394;5.454;2022-08-23T13:54:37;483.13;;;455.48;;
26820;SDS011;37186;51.394;5.454;2022-08-23T13:57:37;459.50;;;433.50;;
26820;SDS011;37186;51.394;5.454;2022-08-23T14:00:39;455.27;;;429.52;;
26820;SDS011;37186;51.394;5.454;2022-08-23T14:03:40;474.55;;;447.98;;
26820;SDS011;37186;51.394;5.454;2022-08-23T14:06:41;457.30;;;432.08;;
26820;SDS011;37186;51.394;5.454;2022-08-23T14:09:41;471.58;;;444.73;;
26820;SDS011;37186;51.394;5.454;2022-08-23T14:12:42;474.85;;;447.63;;
26820;SDS011;37186;51.394;5.454;2022-08-23T14:15:45;444.50;;;419.25;;
26820;SDS011;37186;51.394;5.454;2022-08-23T14:18:45;464.65;;;439.05;;
26820;SDS011;37186;51.394;5.454;2022-08-23T14:21:46;495.88;;;467.95;;
26820;SDS011;37186;51.394;5.454;2022-08-23T14:24:46;472.73;;;445.30;;
26820;SDS011;37186;51.394;5.454;2022-08-23T14:27:47;486.42;;;459.05;;
26820;SDS011;37186;51.394;5.454;2022-08-23T14:30:47;480.50;;;452.25;;
26820;SDS011;37186;51.394;5.454;2022-08-23T14:33:48;450.13;;;424.58;;
26820;SDS011;37186;51.394;5.454;2022-08-23T14:36:49;468.33;;;441.45;;
26820;SDS011;37186;51.394;5.454;2022-08-23T14:39:51;420.60;;;396.77;;
26820;SDS011;37186;51.394;5.454;2022-08-23T14:42:51;429.95;;;404.98;;
26820;SDS011;37186;51.394;5.454;2022-08-23T14:45:52;487.83;;;460.60;;
26820;SDS011;37186;51.394;5.454;2022-08-23T14:48:53;468.13;;;441.98;;
26820;SDS011;37186;51.394;5.454;2022-08-23T14:51:54;488.05;;;459.98;;
26820;SDS011;37186;51.394;5.454;2022-08-23T14:54:54;478.55;;;450.92;;
26820;SDS011;37186;51.394;5.454;2022-08-23T14:57:55;481.80;;;453.48;;
26820;SDS011;37186;51.394;5.454;2022-08-23T15:00:55;493.25;;;464.38;;
26820;SDS011;37186;51.394;5.454;2022-08-23T15:03:56;489.90;;;460.75;;
26820;SDS011;37186;51.394;5.454;2022-08-23T15:06:56;484.02;;;455.23;;
26820;SDS011;37186;51.394;5.454;2022-08-23T15:09:57;496.85;;;467.15;;
26820;SDS011;37186;51.394;5.454;2022-08-23T15:12:58;491.92;;;463.05;;
26820;SDS011;37186;51.394;5.454;2022-08-23T15:15:58;476.73;;;449.27;;
26820;SDS011;37186;51.394;5.454;2022-08-23T15:18:59;451.00;;;424.17;;
26820;SDS011;37186;51.394;5.454;2022-08-23T15:22:00;475.67;;;447.33;;
26820;SDS011;37186;51.394;5.454;2022-08-23T15:25:00;449.48;;;422.58;;
26820;SDS011;37186;51.394;5.454;2022-08-23T15:28:01;471.17;;;443.30;;
26820;SDS011;37186;51.394;5.454;2022-08-23T15:31:03;469.85;;;442.67;;
26820;SDS011;37186;51.394;5.454;2022-08-23T15:34:04;418.48;;;393.50;;
26820;SDS011;37186;51.394;5.454;2022-08-23T15:37:04;422.27;;;397.08;;
26820;SDS011;37186;51.394;5.454;2022-08-23T15:40:05;445.10;;;418.20;;
26820;SDS011;37186;51.394;5.454;2022-08-23T15:43:07;438.90;;;412.67;;
26820;SDS011;37186;51.394;5.454;2022-08-23T15:46:12;417.85;;;394.08;;
26820;SDS011;37186;51.394;5.454;2022-08-23T15:49:16;451.25;;;425.52;;
26820;SDS011;37186;51.394;5.454;2022-08-23T15:52:17;462.65;;;436.90;;
26820;SDS011;37186;51.394;5.454;2022-08-23T15:55:18;477.35;;;450.00;;
26820;SDS011;37186;51.394;5.454;2022-08-23T15:58:21;481.17;;;454.13;;
26820;SDS011;37186;51.394;5.454;2022-08-23T16:01:24;474.17;;;447.17;;
26820;SDS011;37186;51.394;5.454;2022-08-23T16:04:27;480.38;;;452.98;;
26820;SDS011;37186;51.394;5.454;2022-08-23T16:07:28;501.52;;;472.77;;
26820;SDS011;37186;51.394;5.454;2022-08-23T16:10:29;483.20;;;455.42;;
26820;SDS011;37186;51.394;5.454;2022-08-23T16:13:29;495.85;;;467.25;;
26820;SDS011;37186;51.394;5.454;2022-08-23T16:16:30;493.88;;;465.27;;
26820;SDS011;37186;51.394;5.454;2022-08-23T16:19:35;476.98;;;449.63;;
26820;SDS011;37186;51.394;5.454;2022-08-23T16:22:35;485.13;;;456.92;;
26820;SDS011;37186;51.394;5.454;2022-08-23T16:25:36;487.75;;;459.65;;
26820;SDS011;37186;51.394;5.454;2022-08-23T16:28:37;493.80;;;465.15;;
26820;SDS011;37186;51.394;5.454;2022-08-23T16:31:38;471.60;;;444.77;;
26820;SDS011;37186;51.394;5.454;2022-08-23T16:34:39;491.55;;;463.33;;
26820;SDS011;37186;51.394;5.454;2022-08-23T16:37:40;482.30;;;454.65;;
26820;SDS011;37186;51.394;5.454;2022-08-23T16:40:40;476.50;;;448.90;;
26820;SDS011;37186;51.394;5.454;2022-08-23T16:43:41;481.17;;;454.05;;
26820;SDS011;37186;51.394;5.454;2022-08-23T16:46:42;477.25;;;449.67;;
26820;SDS011;37186;51.394;5.454;2022-08-23T16:49:43;468.67;;;442.00;;
26820;SDS011;37186;51.394;5.454;2022-08-23T16:52:43;456.48;;;431.15;;
26820;SDS011;37186;51.394;5.454;2022-08-23T16:55:44;476.55;;;449.48;;
26820;SDS011;37186;51.394;5.454;2022-08-23T16:58:44;481.42;;;454.33;;
26820;SDS011;37186;51.394;5.454;2022-08-23T17:04:49;496.25;;;468.30;;
26820;SDS011;37186;51.394;5.454;2022-08-23T17:07:50;465.17;;;439.58;;
26820;SDS011;37186;51.394;5.454;2022-08-23T17:10:53;469.17;;;443.05;;
26820;SDS011;37186;51.394;5.454;2022-08-23T17:13:53;461.00;;;435.30;;
26820;SDS011;37186;51.394;5.454;2022-08-23T17:16:54;467.75;;;442.10;;
26820;SDS011;37186;51.394;5.454;2022-08-23T17:19:54;468.60;;;442.65;;
26820;SDS011;37186;51.394;5.454;2022-08-23T17:22:55;466.23;;;440.88;;
26820;SDS011;37186;51.394;5.454;2022-08-23T17:25:56;462.83;;;438.08;;
26820;SDS011;37186;51.394;5.454;2022-08-23T17:28:56;470.02;;;444.63;;
26820;SDS011;37186;51.394;5.454;2022-08-23T17:31:57;476.73;;;451.40;;
26820;SDS011;37186;51.394;5.454;2022-08-23T17:34:57;469.30;;;443.83;;
26820;SDS011;37186;51.394;5.454;2022-08-23T17:37:58;465.48;;;440.08;;
26820;SDS011;37186;51.394;5.454;2022-08-23T17:41:00;463.23;;;437.70;;
26820;SDS011;37186;51.394;5.454;2022-08-23T17:44:00;462.58;;;437.15;;
26820;SDS011;37186;51.394;5.454;2022-08-23T17:47:12;461.30;;;435.98;;
26820;SDS011;37186;51.394;5.454;2022-08-23T17:50:15;446.90;;;422.73;;
26820;SDS011;37186;51.394;5.454;2022-08-23T17:53:17;463.30;;;437.98;;
26820;SDS011;37186;51.394;5.454;2022-08-23T17:56:17;459.77;;;434.60;;
26820;SDS011;37186;51.394;5.454;2022-08-23T17:59:18;469.83;;;443.73;;
26820;SDS011;37186;51.394;5.454;2022-08-23T18:02:19;462.42;;;437.42;;
26820;SDS011;37186;51.394;5.454;2022-08-23T18:05:20;427.90;;;405.08;;
26820;SDS011;37186;51.394;5.454;2022-08-23T18:08:20;425.50;;;402.52;;
26820;SDS011;37186;51.394;5.454;2022-08-23T18:11:21;411.52;;;389.25;;
26820;SDS011;37186;51.394;5.454;2022-08-23T18:14:21;417.45;;;395.00;;
26820;SDS011;37186;51.394;5.454;2022-08-23T18:17:22;416.13;;;393.52;;
26820;SDS011;37186;51.394;5.454;2022-08-23T18:20:23;398.45;;;376.92;;
26820;SDS011;37186;51.394;5.454;2022-08-23T18:23:25;390.25;;;369.38;;
26820;SDS011;37186;51.394;5.454;2022-08-23T18:26:26;379.55;;;358.98;;
26820;SDS011;37186;51.394;5.454;2022-08-23T18:29:45;387.35;;;366.45;;
26820;SDS011;37186;51.394;5.454;2022-08-23T18:32:45;364.95;;;345.38;;
26820;SDS011;37186;51.394;5.454;2022-08-23T18:35:46;376.90;;;356.33;;
26820;SDS011;37186;51.394;5.454;2022-08-23T18:38:48;393.55;;;371.80;;
26820;SDS011;37186;51.394;5.454;2022-08-23T18:41:49;366.45;;;346.63;;
26820;SDS011;37186;51.394;5.454;2022-08-23T18:44:49;383.77;;;363.00;;
26820;SDS011;37186;51.394;5.454;2022-08-23T18:47:50;357.98;;;339.10;;
26820;SDS011;37186;51.394;5.454;2022-08-23T18:50:51;357.58;;;338.45;;